createdAt,value
2019-01-13T00:02:00.559Z,53.99
2019-01-13T00:04:31.476Z,53.69
2019-01-13T00:07:01.779Z,53.36
2019-01-13T00:09:33.027Z,54.29
2019-01-13T00:12:04.850Z,54.37
2019-01-13T00:14:35.183Z,53.49
2019-01-13T00:17:06.185Z,53.73
2019-01-13T00:19:36.507Z,53.52
2019-01-13T00:22:09.742Z,53.97
2019-01-13T00:24:40.640Z,53.91
2019-01-13T00:27:11.471Z,54.23
2019-01-13T00:29:42.217Z,54.39
2019-01-13T00:32:12.541Z,54.49
2019-01-13T00:34:43.279Z,54.34
2019-01-13T00:37:14.094Z,55.15
2019-01-13T00:39:45.771Z,55.08
2019-01-13T00:42:17.118Z,54.24
2019-01-13T00:44:47.498Z,54.31
2019-01-13T00:47:18.260Z,53.62
2019-01-13T00:49:48.550Z,54.39
2019-01-13T00:52:18.827Z,54.95
2019-01-13T00:54:50.494Z,54.73
2019-01-13T00:57:21.246Z,54.11
2019-01-13T00:59:52.552Z,54.88
2019-01-13T01:02:22.847Z,54.59
2019-01-13T01:04:53.204Z,54.57
2019-01-13T01:07:24.168Z,54.66
2019-01-13T01:09:55.417Z,54.48
2019-01-13T01:12:27.223Z,54.35
2019-01-13T01:14:57.574Z,53.60
2019-01-13T01:17:28.416Z,55.52
2019-01-13T01:19:58.770Z,56.66
2019-01-13T01:22:29.074Z,56.27
2019-01-13T01:24:59.337Z,55.84
2019-01-13T01:27:29.711Z,55.10
2019-01-13T01:30:00.561Z,54.53
2019-01-13T01:32:30.852Z,54.36
2019-01-13T01:35:01.153Z,54.29
2019-01-13T01:37:31.459Z,53.57
2019-01-13T01:40:01.831Z,53.53
2019-01-13T01:42:32.571Z,53.90
2019-01-13T01:45:03.356Z,53.84
2019-01-13T01:47:33.630Z,53.55
2019-01-13T01:50:05.444Z,54.29
2019-01-13T01:52:36.182Z,54.78
2019-01-13T01:55:08.140Z,54.45
2019-01-13T01:57:38.426Z,53.65
2019-01-13T02:00:14.464Z,53.93
2019-01-13T02:02:45.368Z,54.32
2019-01-13T02:05:15.866Z,53.81
2019-01-13T02:07:46.533Z,54.15
2019-01-13T02:10:20.424Z,54.40
2019-01-13T02:12:52.586Z,54.45
2019-01-13T02:15:25.962Z,53.77
2019-01-13T02:17:56.371Z,53.91
2019-01-13T02:20:26.842Z,54.87
2019-01-13T02:22:57.789Z,54.55
2019-01-13T02:25:29.406Z,54.57
2019-01-13T02:28:00.717Z,54.85
2019-01-13T02:30:31.080Z,54.72
2019-01-13T02:33:02.393Z,55.58
2019-01-13T02:35:33.146Z,56.01
2019-01-13T02:38:03.468Z,55.34
2019-01-13T02:40:33.841Z,55.43
2019-01-13T02:43:04.152Z,56.55
2019-01-13T02:45:35.039Z,56.13
2019-01-13T02:48:06.206Z,55.45
2019-01-13T02:50:36.515Z,55.23
2019-01-13T02:53:06.840Z,55.71
2019-01-13T02:55:38.598Z,56.67
2019-01-13T02:58:08.943Z,56.59
2019-01-13T03:00:39.249Z,56.17
2019-01-13T03:03:12.032Z,57.65
2019-01-13T03:05:42.359Z,57.93
2019-01-13T03:08:13.217Z,59.25
2019-01-13T03:10:43.497Z,57.76
2019-01-13T03:13:14.947Z,57.52
2019-01-13T03:15:45.237Z,56.88
2019-01-13T03:18:17.167Z,56.01
2019-01-13T03:20:47.461Z,56.58
2019-01-13T03:23:17.737Z,57.30
2019-01-13T03:25:48.094Z,56.82
2019-01-13T03:28:18.980Z,56.64
2019-01-13T03:30:49.305Z,57.27
2019-01-13T03:33:19.635Z,55.84
2019-01-13T03:35:50.385Z,56.06
2019-01-13T03:38:21.187Z,55.57
2019-01-13T03:40:51.666Z,56.21
2019-01-13T03:43:21.957Z,56.16
2019-01-13T03:45:52.699Z,55.92
2019-01-13T03:48:23.509Z,55.29
2019-01-13T03:50:54.271Z,55.64
2019-01-13T03:53:24.616Z,56.44
2019-01-13T03:55:54.938Z,56.96
2019-01-13T03:58:25.710Z,59.51
2019-01-13T04:00:56.003Z,59.41
2019-01-13T04:03:26.517Z,58.24
2019-01-13T04:05:56.791Z,59.75
2019-01-13T04:08:29.212Z,58.47
2019-01-13T04:10:59.511Z,59.42
2019-01-13T04:13:30.808Z,58.37
2019-01-13T04:16:01.929Z,57.59
2019-01-13T04:18:32.664Z,57.29
2019-01-13T04:21:02.993Z,57.59
2019-01-13T04:23:34.252Z,56.95
2019-01-13T04:26:04.640Z,57.12
2019-01-13T04:28:35.610Z,57.06
2019-01-13T04:31:05.914Z,56.73
2019-01-13T04:33:36.570Z,56.90
2019-01-13T04:36:06.833Z,59.74
2019-01-13T04:38:38.139Z,57.50
2019-01-13T04:41:08.438Z,57.43
2019-01-13T04:43:38.708Z,57.88
2019-01-13T04:46:09.427Z,57.26
2019-01-13T04:48:40.181Z,56.62
2019-01-13T04:51:10.772Z,58.60
2019-01-13T04:53:42.122Z,57.88
2019-01-13T04:56:13.696Z,58.08
2019-01-13T04:58:44.477Z,58.64
2019-01-13T05:01:15.088Z,60.15
2019-01-13T05:03:45.751Z,60.09
2019-01-13T05:06:16.047Z,61.66
2019-01-13T05:08:46.835Z,59.43
2019-01-13T05:11:18.218Z,58.29
2019-01-13T05:13:49.428Z,58.50
2019-01-13T05:16:21.141Z,58.67
2019-01-13T05:18:51.931Z,57.26
2019-01-13T05:21:22.257Z,61.68
2019-01-13T05:23:52.527Z,59.24
2019-01-13T05:26:24.268Z,59.08
2019-01-13T05:28:55.004Z,57.98
2019-01-13T05:31:25.331Z,58.77
2019-01-13T05:33:55.702Z,59.46
2019-01-13T05:36:25.978Z,60.23
2019-01-13T05:38:56.813Z,58.52
2019-01-13T05:41:27.180Z,60.99
2019-01-13T05:43:58.009Z,61.91
2019-01-13T05:46:28.306Z,59.82
2019-01-13T05:48:59.044Z,58.95
2019-01-13T05:51:29.411Z,61.46
2019-01-13T05:53:59.695Z,61.83
2019-01-13T05:56:31.341Z,59.27
2019-01-13T05:59:02.085Z,59.26
2019-01-13T06:01:33.957Z,59.80
2019-01-13T06:04:04.395Z,59.61
2019-01-13T06:06:34.699Z,59.60
2019-01-13T06:09:07.851Z,61.86
2019-01-13T06:11:38.257Z,63.35
2019-01-13T06:14:10.805Z,61.56
2019-01-13T06:16:41.208Z,59.64
2019-01-13T06:19:12.087Z,59.04
2019-01-13T06:21:42.412Z,58.19
2019-01-13T06:24:12.695Z,59.28
2019-01-13T06:26:43.043Z,58.48
2019-01-13T06:29:13.875Z,59.88
2019-01-13T06:31:45.029Z,59.39
2019-01-13T06:34:15.319Z,60.07
2019-01-13T06:36:45.599Z,59.62
2019-01-13T06:39:16.356Z,58.88
2019-01-13T06:41:46.720Z,58.33
2019-01-13T06:44:17.100Z,60.12
2019-01-13T06:46:47.372Z,60.80
2019-01-13T06:49:18.999Z,61.44
2019-01-13T06:51:50.197Z,60.14
2019-01-13T06:54:20.592Z,59.29
2019-01-13T06:56:51.054Z,60.68
2019-01-13T06:59:22.251Z,58.62
2019-01-13T07:01:52.527Z,61.52
2019-01-13T07:04:24.420Z,60.30
2019-01-13T07:06:54.782Z,58.46
2019-01-13T07:09:25.622Z,58.37
2019-01-13T07:11:55.892Z,58.40
2019-01-13T07:14:27.425Z,57.51
2019-01-13T07:16:57.696Z,58.44
2019-01-13T07:19:29.943Z,58.94
2019-01-13T07:22:00.249Z,57.47
2019-01-13T07:24:30.548Z,57.14
2019-01-13T07:27:01.330Z,56.94
2019-01-13T07:29:31.619Z,56.28
2019-01-13T07:32:02.392Z,56.68
2019-01-13T07:34:32.693Z,57.77
2019-01-13T07:37:02.979Z,57.42
2019-01-13T07:39:33.283Z,57.83
2019-01-13T07:42:04.063Z,59.13
2019-01-13T07:44:34.344Z,58.04
2019-01-13T07:47:04.638Z,59.04
2019-01-13T07:49:34.964Z,59.06
2019-01-13T07:52:05.911Z,58.17
2019-01-13T07:54:37.249Z,59.93
2019-01-13T07:57:07.535Z,59.03
2019-01-13T07:59:37.837Z,60.43
2019-01-13T08:02:08.635Z,58.96
2019-01-13T08:04:39.025Z,60.41
2019-01-13T08:07:09.291Z,59.36
2019-01-13T08:09:39.609Z,60.27
2019-01-13T08:12:10.943Z,59.20
2019-01-13T08:14:42.311Z,59.33
2019-01-13T08:17:12.646Z,59.43
2019-01-13T08:19:42.923Z,58.97
2019-01-13T08:22:13.230Z,62.38
2019-01-13T08:24:44.067Z,60.85
2019-01-13T08:27:14.871Z,59.46
2019-01-13T08:29:45.145Z,60.27
2019-01-13T08:32:15.494Z,62.03
2019-01-13T08:34:45.820Z,60.99
2019-01-13T08:37:16.659Z,62.22
2019-01-13T08:39:46.942Z,60.97
2019-01-13T08:42:17.281Z,60.53
2019-01-13T08:44:47.635Z,61.50
2019-01-13T08:47:17.939Z,61.49
2019-01-13T08:49:48.844Z,61.49
2019-01-13T08:52:19.252Z,60.61
2019-01-13T08:54:49.537Z,60.83
2019-01-13T08:57:20.213Z,60.16
2019-01-13T08:59:50.867Z,60.22
2019-01-13T09:02:21.721Z,60.77
2019-01-13T09:04:52.094Z,60.37
2019-01-13T09:07:22.576Z,61.22
2019-01-13T09:09:53.379Z,61.62
2019-01-13T09:12:23.943Z,60.22
2019-01-13T09:14:55.873Z,60.72
2019-01-13T09:17:27.028Z,61.28
2019-01-13T09:19:57.835Z,60.89
2019-01-13T09:22:28.116Z,62.35
2019-01-13T09:24:58.426Z,61.12
2019-01-13T09:27:28.741Z,60.28
2019-01-13T09:29:59.163Z,61.75
2019-01-13T09:32:30.103Z,60.91
2019-01-13T09:35:01.369Z,61.52
2019-01-13T09:37:31.657Z,62.30
2019-01-13T09:40:01.993Z,61.88
2019-01-13T09:42:32.678Z,61.05
2019-01-13T09:45:03.064Z,61.48
2019-01-13T09:47:33.347Z,61.27
2019-01-13T09:50:05.456Z,61.57
2019-01-13T09:52:36.318Z,60.54
2019-01-13T09:55:07.971Z,62.37
2019-01-13T09:57:38.243Z,62.94
2019-01-13T10:00:13.629Z,61.87
2019-01-13T10:02:46.873Z,61.77
2019-01-13T10:05:17.365Z,61.58
2019-01-13T10:07:47.671Z,61.43
2019-01-13T10:10:18.018Z,61.66
2019-01-13T10:12:48.300Z,62.41
2019-01-13T10:15:21.449Z,61.13
2019-01-13T10:17:52.762Z,61.82
2019-01-13T10:20:23.707Z,61.94
2019-01-13T10:22:54.233Z,62.43
2019-01-13T10:25:25.607Z,62.03
2019-01-13T10:27:55.992Z,62.86
2019-01-13T10:30:28.508Z,62.13
2019-01-13T10:32:58.794Z,61.70
2019-01-13T10:35:30.288Z,61.54
2019-01-13T10:38:00.585Z,61.19
2019-01-13T10:40:32.182Z,60.64
2019-01-13T10:43:02.492Z,61.84
2019-01-13T10:45:33.259Z,62.99
2019-01-13T10:48:03.558Z,61.76
2019-01-13T10:50:34.586Z,62.18
2019-01-13T10:53:07.135Z,61.91
2019-01-13T10:55:37.998Z,61.03
2019-01-13T10:58:08.342Z,60.77
2019-01-13T11:00:39.515Z,61.12
2019-01-13T11:03:09.797Z,61.29
2019-01-13T11:05:41.250Z,60.77
2019-01-13T11:08:12.800Z,61.12
2019-01-13T11:10:43.235Z,60.98
2019-01-13T11:13:13.555Z,59.79
2019-01-13T11:15:45.230Z,59.20
2019-01-13T11:18:15.536Z,60.25
2019-01-13T11:20:47.092Z,59.71
2019-01-13T11:23:17.556Z,60.36
2019-01-13T11:25:48.560Z,59.85
2019-01-13T11:28:18.889Z,63.47
2019-01-13T11:30:49.322Z,62.02
2019-01-13T11:33:19.615Z,60.98
2019-01-13T11:35:51.653Z,61.72
2019-01-13T11:38:21.936Z,60.79
2019-01-13T11:40:52.313Z,60.68
2019-01-13T11:43:22.607Z,60.55
2019-01-13T11:45:53.553Z,61.70
2019-01-13T11:48:23.831Z,60.82
2019-01-13T11:50:55.734Z,60.04
2019-01-13T11:53:26.061Z,60.26
2019-01-13T11:55:57.001Z,61.19
2019-01-13T11:58:27.611Z,60.51
2019-01-13T12:00:57.997Z,60.86
2019-01-13T12:03:28.299Z,60.25
2019-01-13T12:06:00.434Z,61.30
2019-01-13T12:08:30.753Z,60.58
2019-01-13T12:11:01.089Z,61.17
2019-01-13T12:13:31.386Z,61.42
2019-01-13T12:16:03.272Z,61.14
2019-01-13T12:18:40.345Z,61.90
2019-01-13T12:21:06.018Z,60.80
2019-01-13T12:23:36.319Z,60.03
2019-01-13T12:26:07.234Z,59.78
2019-01-13T12:28:37.560Z,60.78
2019-01-13T12:31:07.897Z,59.86
2019-01-13T12:33:38.195Z,59.30
2019-01-13T12:36:10.740Z,59.75
2019-01-13T12:38:41.184Z,59.48
2019-01-13T12:41:13.192Z,61.80
2019-01-13T12:43:43.466Z,60.66
2019-01-13T12:46:14.247Z,60.77
2019-01-13T12:48:44.523Z,61.28
2019-01-13T12:51:15.411Z,60.38
2019-01-13T12:53:45.744Z,60.86
2019-01-13T12:56:16.679Z,61.96
2019-01-13T12:58:46.973Z,61.00
2019-01-13T13:01:17.279Z,60.29
2019-01-13T13:03:47.559Z,59.93
2019-01-13T13:06:19.929Z,59.85
2019-01-13T13:08:50.332Z,59.57
2019-01-13T13:11:20.600Z,60.16
2019-01-13T13:13:50.987Z,60.73
2019-01-13T13:16:22.538Z,60.56
2019-01-13T13:18:52.972Z,61.20
2019-01-13T13:21:23.527Z,60.92
2019-01-13T13:23:54.771Z,60.52
2019-01-13T13:26:25.524Z,61.41
2019-01-13T13:28:55.973Z,59.92
2019-01-13T13:31:26.256Z,60.54
2019-01-13T13:33:56.539Z,60.59
2019-01-13T13:36:27.336Z,61.58
2019-01-13T13:38:59.077Z,60.93
2019-01-13T13:41:30.429Z,60.15
2019-01-13T13:44:00.730Z,62.72
2019-01-13T13:46:31.181Z,60.93
2019-01-13T13:49:01.586Z,60.82
2019-01-13T13:51:32.449Z,62.33
2019-01-13T13:54:02.728Z,62.91
2019-01-13T13:56:34.354Z,62.18
2019-01-13T13:59:04.653Z,61.50
2019-01-13T14:01:36.255Z,62.42
2019-01-13T14:04:06.537Z,62.04
2019-01-13T14:06:36.839Z,63.36
2019-01-13T14:09:09.172Z,61.69
2019-01-13T14:11:40.725Z,63.17
2019-01-13T14:14:11.122Z,62.78
2019-01-13T14:16:43.417Z,61.44
2019-01-13T14:19:16.356Z,60.74
2019-01-13T14:21:47.560Z,61.13
2019-01-13T14:24:17.891Z,62.50
2019-01-13T14:26:49.105Z,60.67
2019-01-13T14:29:19.423Z,60.89
2019-01-13T14:31:50.572Z,60.91
2019-01-13T14:34:20.919Z,61.03
2019-01-13T14:36:51.549Z,61.46
2019-01-13T14:39:21.851Z,62.72
2019-01-13T14:41:53.170Z,61.72
2019-01-13T14:44:23.495Z,61.87
2019-01-13T14:46:54.265Z,60.33
2019-01-13T14:49:24.594Z,60.44
2019-01-13T14:51:55.449Z,60.77
2019-01-13T14:54:25.810Z,60.57
2019-01-13T14:56:57.343Z,60.15
2019-01-13T14:59:27.660Z,60.52
2019-01-13T15:01:58.497Z,60.22
2019-01-13T15:04:28.921Z,61.55
2019-01-13T15:06:59.226Z,61.43
2019-01-13T15:09:29.534Z,61.61
2019-01-13T15:12:00.798Z,63.23
2019-01-13T15:14:31.126Z,62.65
2019-01-13T15:17:01.659Z,62.13
2019-01-13T15:19:32.026Z,61.62
2019-01-13T15:22:02.789Z,61.90
2019-01-13T15:24:33.191Z,62.90
2019-01-13T15:27:03.468Z,62.24
2019-01-13T15:29:33.850Z,62.61
2019-01-13T15:32:04.638Z,61.28
2019-01-13T15:34:35.024Z,61.45
2019-01-13T15:37:05.356Z,61.56
2019-01-13T15:39:35.620Z,61.99
2019-01-13T15:42:05.923Z,61.02
2019-01-13T15:44:36.883Z,60.61
2019-01-13T15:47:07.316Z,60.80
2019-01-13T15:49:37.638Z,61.31
2019-01-13T15:52:07.982Z,60.24
2019-01-13T15:54:38.886Z,60.41
2019-01-13T15:57:09.208Z,60.03
2019-01-13T15:59:39.520Z,59.56
2019-01-13T16:02:10.913Z,59.80
2019-01-13T16:04:41.672Z,61.24
2019-01-13T16:07:11.986Z,61.00
2019-01-13T16:09:42.286Z,60.07
2019-01-13T16:12:12.594Z,60.64
2019-01-13T16:14:43.005Z,61.34
2019-01-13T16:17:14.927Z,60.65
2019-01-13T16:19:45.331Z,60.58
2019-01-13T16:22:15.613Z,59.72
2019-01-13T16:24:45.917Z,59.92
2019-01-13T16:27:16.821Z,59.37
2019-01-13T16:29:47.500Z,59.17
2019-01-13T16:32:17.766Z,58.84
2019-01-13T16:34:49.443Z,59.34
2019-01-13T16:37:20.256Z,59.26
2019-01-13T16:39:50.673Z,59.12
2019-01-13T16:42:21.069Z,59.72
2019-01-13T16:44:51.418Z,58.82
2019-01-13T16:47:22.381Z,57.80
2019-01-13T16:49:52.664Z,57.81
2019-01-13T16:52:24.385Z,57.70
2019-01-13T16:54:54.711Z,56.98
2019-01-13T16:57:25.960Z,59.02
2019-01-13T16:59:57.136Z,59.54
2019-01-13T17:02:33.039Z,58.98
2019-01-13T17:04:59.620Z,58.65
2019-01-13T17:07:30.950Z,58.20
2019-01-13T17:10:01.236Z,58.04
2019-01-13T17:12:31.519Z,57.88
2019-01-13T17:15:01.906Z,57.64
2019-01-13T17:17:33.769Z,57.75
2019-01-13T17:20:04.839Z,58.17
2019-01-13T17:22:35.139Z,57.58
2019-01-13T17:25:07.225Z,56.41
2019-01-13T17:27:38.068Z,57.91
2019-01-13T17:30:12.901Z,57.38
2019-01-13T17:32:43.247Z,56.68
2019-01-13T17:35:13.672Z,57.74
2019-01-13T17:37:43.996Z,57.54
2019-01-13T17:40:16.298Z,57.51
2019-01-13T17:42:47.105Z,58.09
2019-01-13T17:45:18.906Z,56.85
2019-01-13T17:47:49.461Z,57.36
2019-01-13T17:50:22.299Z,57.15
2019-01-13T17:52:53.460Z,56.83
2019-01-13T17:55:25.195Z,56.33
2019-01-13T17:57:57.180Z,56.59
2019-01-13T18:00:40.174Z,57.48
2019-01-13T18:03:13.042Z,58.58
2019-01-13T18:05:44.761Z,59.17
2019-01-13T18:08:16.491Z,58.96
2019-01-13T18:10:49.791Z,61.30
2019-01-13T18:13:22.274Z,61.72
2019-01-13T18:15:54.225Z,60.93
2019-01-13T18:18:26.277Z,62.40
2019-01-13T18:20:57.896Z,62.31
2019-01-13T18:23:31.430Z,62.90
2019-01-13T18:26:03.796Z,61.72
2019-01-13T18:28:39.600Z,60.27
2019-01-13T18:31:11.006Z,61.28
2019-01-13T18:33:42.375Z,59.62
2019-01-13T18:36:14.425Z,59.17
2019-01-13T18:38:45.471Z,59.15
2019-01-13T18:41:18.352Z,58.51
2019-01-13T18:43:51.829Z,59.22
2019-01-13T18:46:23.926Z,58.89
2019-01-13T18:48:56.391Z,59.43
2019-01-13T18:51:29.310Z,58.47
2019-01-13T18:54:02.180Z,58.64
2019-01-13T18:56:34.023Z,58.98
2019-01-13T18:59:07.973Z,57.92
2019-01-13T19:01:39.397Z,57.80
2019-01-13T19:04:13.214Z,58.44
2019-01-13T19:06:45.480Z,58.92
2019-01-13T19:09:18.465Z,58.48
2019-01-13T19:11:54.071Z,57.98
2019-01-13T19:14:48.623Z,57.96
2019-01-13T19:17:28.878Z,57.23
2019-01-13T19:20:29.497Z,57.78
2019-01-13T19:23:05.761Z,56.42
2019-01-13T19:25:39.471Z,56.11
2019-01-13T19:28:17.884Z,57.37
2019-01-13T19:30:51.083Z,56.92
2019-01-13T19:33:23.340Z,55.96
2019-01-13T19:35:57.473Z,53.92
2019-01-13T19:38:31.473Z,53.82
2019-01-13T19:41:02.245Z,54.75
2019-01-13T19:43:32.556Z,59.29
2019-01-13T19:46:04.231Z,61.46
2019-01-13T19:48:34.495Z,62.02
2019-01-13T19:51:05.359Z,61.70
2019-01-13T19:53:35.614Z,61.96
2019-01-13T19:56:06.029Z,60.11
2019-01-13T19:58:36.319Z,60.41
2019-01-13T20:01:08.272Z,60.18
2019-01-13T20:03:38.561Z,60.39
2019-01-13T20:06:09.159Z,61.61
2019-01-13T20:08:39.561Z,62.41
2019-01-13T20:11:10.402Z,62.46
2019-01-13T20:13:40.709Z,62.09
2019-01-13T20:16:12.120Z,61.37
2019-01-13T20:18:42.421Z,61.22
2019-01-13T20:21:14.230Z,60.37
2019-01-13T20:23:44.560Z,60.18
2019-01-13T20:26:14.888Z,60.07
2019-01-13T20:28:45.186Z,59.85
2019-01-13T20:31:17.378Z,58.95
2019-01-13T20:33:47.665Z,59.01
2019-01-13T20:36:18.066Z,58.31
2019-01-13T20:38:48.372Z,58.45
2019-01-13T20:41:19.171Z,58.14
2019-01-13T20:43:49.444Z,58.37
2019-01-13T20:46:20.824Z,59.62
2019-01-13T20:48:51.144Z,59.33
2019-01-13T20:51:21.938Z,59.87
2019-01-13T20:53:52.249Z,58.90
2019-01-13T20:56:22.558Z,58.75
2019-01-13T20:58:52.892Z,59.38
2019-01-13T21:01:23.774Z,57.32
2019-01-13T21:03:55.786Z,57.13
2019-01-13T21:06:26.099Z,57.08
2019-01-13T21:08:56.830Z,56.30
2019-01-13T21:11:27.585Z,55.52
2019-01-13T21:13:57.911Z,55.87
2019-01-13T21:16:28.428Z,54.99
2019-01-13T21:18:58.690Z,54.73
2019-01-13T21:21:30.308Z,53.75
2019-01-13T21:24:01.965Z,53.95
2019-01-13T21:26:34.179Z,54.34
2019-01-13T21:29:04.585Z,54.07
2019-01-13T21:31:35.025Z,54.28
2019-01-13T21:34:05.416Z,54.03
2019-01-13T21:36:35.760Z,54.54
2019-01-13T21:39:10.367Z,55.00
2019-01-13T21:41:41.227Z,56.15
2019-01-13T21:44:11.553Z,56.37
2019-01-13T21:46:41.859Z,56.03
2019-01-13T21:49:12.501Z,55.89
2019-01-13T21:51:44.252Z,55.68
2019-01-13T21:54:16.150Z,55.69
2019-01-13T21:56:46.436Z,55.79
2019-01-13T21:59:16.707Z,54.64
2019-01-13T22:01:47.091Z,55.07
2019-01-13T22:04:17.922Z,54.42
2019-01-13T22:06:51.190Z,55.08
2019-01-13T22:09:21.479Z,54.04
2019-01-13T22:11:51.823Z,55.29
2019-01-13T22:14:22.120Z,54.62
2019-01-13T22:16:53.290Z,54.25
2019-01-13T22:19:23.545Z,53.84
2019-01-13T22:21:55.797Z,54.72
2019-01-13T22:24:26.083Z,54.77
2019-01-13T22:26:56.903Z,54.06
2019-01-13T22:29:27.250Z,53.52
2019-01-13T22:31:57.556Z,53.22
2019-01-13T22:34:27.949Z,54.86
2019-01-13T22:36:58.825Z,53.23
2019-01-13T22:39:29.125Z,52.83
2019-01-13T22:41:59.493Z,53.34
2019-01-13T22:44:29.821Z,53.46
2019-01-13T22:47:00.635Z,54.35
2019-01-13T22:49:30.983Z,54.63
2019-01-13T22:52:01.368Z,53.41
2019-01-13T22:54:31.668Z,53.59
2019-01-13T22:57:02.079Z,52.68
2019-01-13T22:59:32.842Z,53.52
2019-01-13T23:02:03.624Z,53.25
2019-01-13T23:04:33.971Z,52.60
2019-01-13T23:07:04.685Z,52.93
2019-01-13T23:09:35.462Z,52.06
2019-01-13T23:12:05.922Z,52.23
2019-01-13T23:14:36.211Z,51.17
2019-01-13T23:17:06.571Z,52.15
2019-01-13T23:19:36.860Z,53.70
2019-01-13T23:22:09.063Z,54.18
2019-01-13T23:24:39.368Z,53.62
2019-01-13T23:27:09.663Z,53.49
2019-01-13T23:29:40.479Z,53.15
2019-01-13T23:32:11.312Z,52.32
2019-01-13T23:34:41.647Z,52.12
2019-01-13T23:37:13.119Z,52.70
2019-01-13T23:39:43.546Z,52.06
2019-01-13T23:42:15.215Z,52.04
2019-01-13T23:44:47.039Z,51.86
2019-01-13T23:47:19.664Z,52.00
2019-01-13T23:49:51.106Z,51.81
2019-01-13T23:52:23.802Z,52.45
2019-01-13T23:54:56.065Z,53.84
2019-01-13T23:57:30.799Z,54.33
